Logan, UT

9:48 PM MDT on April 20, 2015 (GMT -0600)
Logan-Cache | | Change Station
CLOSE
Current Station
Airport
Location: Logan,
Elevation: 4455 ft
Nearby Weather Stations

Elev 4455 ft 41.79 °N, 111.85 °W | Updated 57 minutes ago

Partly Cloudy
Partly Cloudy
58 °F
Feels Like 58 °F
N
4
Wind Variable Wind from NE

Today
High -- | Low -- °F
--% Chance of Precip.
Yesterday
High -- | Low -- °F
Precip. -- in
6:39 AM 8:13 PM
Waxing Crescent, 8% visible
Pressure 29.81 in
Visibility 10.0 miles
Clouds Clear
Dew Point 34 °F
Humidity 41%
Rainfall 0.00 in
Snow Depth Not available.
UV 0 out of 12
Pollen 9.80 out of 12
Air Quality Not available.
Flu Activity Local Activity
METAR KLGU 210251Z AUTO 05003KT 10SM CLR 14/01 A2987 RMK AO2 SLP092 T01440011 53003

More Conditions Fewer Conditions

Pressure 29.81 in
Visibility 10.0 miles
Clouds Clear
Dew Point 34 °F
Humidity 41%
Rainfall 0.00 in
Snow Depth Not available.
UV 0 out of 12
Pollen 9.80 out of 12
Air Quality Not available.
Flu Activity Local Activity
METAR KLGU 210251Z AUTO 05003KT 10SM CLR 14/01 A2987 RMK AO2 SLP092 T01440011 53003

More Conditions Fewer Conditions

10-Day Weather Forecast

Almanac

Astronomy

Apr. 20, 2015 Rise Set
Actual Time
Civil Twilight
Nautical Twilight
Astronomical Twilight
Moon
Length of Visible Light
Length of Day
Tomorrow will be .
, % of the Moon is Illuminated

Today's Extremes

State Highs State Lows

Community

WunderPhotos

Upload Photos

1,815,296 photos uploaded!

WunderBlogs® & News

Nearby

Air Quality

  Air Quality AQ Index Pollutant
Not available.

Snow Depth

Station Depth Elevation

Earthquake Activity

City Distance Mag. Time & Date
Minimum magnitude displayed is 2.5.

Coastal Water Temperatures

Place Temperature

Stations

Nearby Weather Stations

Station Location Temp. Windchill Dew Point Humidity Wind Precip. Elev Updated Type